Terminal Aerodrome Forecast
Issued by NWS Wilmington, OH

Home | Current Version | Previous Version | Text Only | Print | Product List | Glossary On
Versions: 1 2 3 4 5 6 7 8 9 10 11 12 13 14 15 16 17 18 19 20 21 22
792
FTUS41 KILN 290901 AAA
TAFCVG
TAF AMD
KCVG 290901Z 2909/3012 19006KT P6SM BKN250 WS020/22035KT
     FM291300 20009KT P6SM BKN250
     FM291600 21012G22KT P6SM SCT040 SCT250
     FM300000 20008KT P6SM FEW050 BKN250=

USA.gov is the U.S. government's official web portal to all federal, state and local government web resources and services.